createdAt,value
2019-03-19T00:00:46.791Z,90.00
2019-03-19T00:03:14.050Z,89.90
2019-03-19T00:05:41.521Z,89.80
2019-03-19T00:08:08.795Z,89.90
2019-03-19T00:10:36.171Z,89.80
2019-03-19T00:13:03.576Z,89.90
2019-03-19T00:15:30.850Z,90.00
2019-03-19T00:17:58.091Z,89.70
2019-03-19T00:20:25.451Z,89.70
2019-03-19T00:22:53.042Z,89.30
2019-03-19T00:25:29.575Z,89.40
2019-03-19T00:27:49.501Z,89.70
2019-03-19T00:30:16.909Z,89.80
2019-03-19T00:32:44.297Z,89.90
2019-03-19T00:35:12.119Z,90.10
2019-03-19T00:37:39.296Z,89.80
2019-03-19T00:40:06.740Z,89.90
2019-03-19T00:42:34.119Z,90.00
2019-03-19T00:45:01.457Z,89.80
2019-03-19T00:47:28.868Z,89.90
2019-03-19T00:49:56.301Z,89.90
2019-03-19T00:52:23.440Z,89.90
2019-03-19T00:54:50.832Z,90.10
2019-03-19T00:57:18.067Z,89.50
2019-03-19T00:59:45.478Z,89.60
2019-03-19T01:02:12.899Z,89.80
2019-03-19T01:04:40.656Z,89.90
2019-03-19T01:07:08.313Z,90.10
2019-03-19T01:09:35.555Z,90.40
2019-03-19T01:12:02.776Z,90.50
2019-03-19T01:14:30.519Z,90.10
2019-03-19T01:16:57.912Z,89.90
2019-03-19T01:19:25.337Z,90.30
2019-03-19T01:21:52.998Z,90.20
2019-03-19T01:24:20.208Z,90.20
2019-03-19T01:26:47.521Z,90.10
2019-03-19T01:29:14.724Z,90.50
2019-03-19T01:31:41.988Z,90.40
2019-03-19T01:34:09.369Z,90.70
2019-03-19T01:36:36.625Z,90.50
2019-03-19T01:39:05.524Z,90.50
2019-03-19T01:41:32.867Z,90.40
2019-03-19T01:44:00.153Z,90.90
2019-03-19T01:46:27.489Z,91.00
2019-03-19T01:48:54.701Z,91.10
2019-03-19T01:51:21.843Z,91.00
2019-03-19T01:53:49.626Z,91.10
2019-03-19T01:56:16.966Z,91.20
2019-03-19T01:58:44.087Z,91.30
2019-03-19T02:01:11.469Z,91.60
2019-03-19T02:03:38.611Z,91.20
2019-03-19T02:06:05.984Z,91.30
2019-03-19T02:08:34.508Z,91.10
2019-03-19T02:11:02.225Z,91.00
2019-03-19T02:13:29.447Z,91.00
2019-03-19T02:15:56.857Z,90.80
2019-03-19T02:18:24.073Z,91.00
2019-03-19T02:20:51.293Z,91.00
2019-03-19T02:23:18.661Z,90.80
2019-03-19T02:25:46.305Z,91.00
2019-03-19T02:28:14.887Z,90.90
2019-03-19T02:30:42.138Z,90.80
2019-03-19T02:33:09.693Z,90.90
2019-03-19T02:35:37.221Z,91.00
2019-03-19T02:38:06.044Z,90.70
2019-03-19T02:40:33.395Z,90.90
2019-03-19T02:43:00.620Z,90.80
2019-03-19T02:45:28.317Z,91.20
2019-03-19T02:47:55.681Z,91.20
2019-03-19T02:50:23.100Z,91.00
2019-03-19T02:52:50.412Z,91.10
2019-03-19T02:55:17.708Z,91.50
2019-03-19T02:57:45.081Z,91.40
2019-03-19T03:00:12.714Z,91.60
2019-03-19T03:02:39.992Z,91.80
2019-03-19T03:05:08.477Z,92.20
2019-03-19T03:07:35.887Z,92.10
2019-03-19T03:10:04.343Z,92.10
2019-03-19T03:12:31.625Z,91.90
2019-03-19T03:14:58.780Z,91.90
2019-03-19T03:17:27.193Z,91.80
2019-03-19T03:19:54.421Z,91.90
2019-03-19T03:22:21.856Z,91.90
2019-03-19T03:24:51.171Z,91.80
2019-03-19T03:27:18.865Z,91.90
2019-03-19T03:29:47.379Z,92.10
2019-03-19T03:32:14.723Z,92.00
2019-03-19T03:34:42.092Z,92.20
2019-03-19T03:37:09.603Z,92.20
2019-03-19T03:39:37.379Z,92.30
2019-03-19T03:42:04.625Z,92.30
2019-03-19T03:44:32.168Z,92.40
2019-03-19T03:46:59.162Z,92.00
2019-03-19T03:49:26.403Z,91.70
2019-03-19T03:51:53.748Z,91.70
2019-03-19T03:54:21.410Z,91.50
2019-03-19T03:57:01.180Z,91.50
2019-03-19T03:59:17.712Z,91.60
2019-03-19T04:01:45.050Z,91.70
2019-03-19T04:04:12.444Z,91.70
2019-03-19T04:06:40.952Z,91.50
2019-03-19T04:09:09.410Z,91.40
2019-03-19T04:11:37.193Z,91.50
2019-03-19T04:14:04.662Z,91.60
2019-03-19T04:16:32.039Z,91.50
2019-03-19T04:18:59.446Z,91.70
2019-03-19T04:21:26.831Z,91.70
2019-03-19T04:23:54.134Z,91.90
2019-03-19T04:26:21.498Z,91.90
2019-03-19T04:28:51.634Z,92.10
2019-03-19T04:31:18.974Z,92.00
2019-03-19T04:33:46.205Z,92.20
2019-03-19T04:36:13.530Z,92.20
2019-03-19T04:38:40.868Z,92.00
2019-03-19T04:41:08.239Z,91.60
2019-03-19T04:43:35.685Z,91.80
2019-03-19T04:46:03.072Z,92.00
2019-03-19T04:48:30.226Z,91.80
2019-03-19T04:50:57.619Z,91.70
2019-03-19T04:53:24.878Z,91.70
2019-03-19T04:55:52.702Z,91.70
2019-03-19T04:58:20.027Z,91.90
2019-03-19T05:00:47.421Z,91.90
2019-03-19T05:03:14.658Z,92.00
2019-03-19T05:05:41.994Z,92.00
2019-03-19T05:08:09.432Z,91.70
2019-03-19T05:10:36.667Z,92.00
2019-03-19T05:13:03.965Z,92.40
2019-03-19T05:15:31.677Z,92.40
2019-03-19T05:17:59.106Z,92.40
2019-03-19T05:20:26.481Z,92.70
2019-03-19T05:22:53.709Z,92.70
2019-03-19T05:25:21.096Z,92.90
2019-03-19T05:27:48.357Z,92.90
2019-03-19T05:30:15.786Z,92.70
2019-03-19T05:32:43.149Z,92.50
2019-03-19T05:35:10.546Z,92.50
2019-03-19T05:37:38.154Z,92.30
2019-03-19T05:40:05.623Z,92.30
2019-03-19T05:42:33.113Z,92.50
2019-03-19T05:45:00.331Z,92.80
2019-03-19T05:47:36.755Z,92.50
2019-03-19T05:49:57.103Z,92.40
2019-03-19T05:52:24.306Z,92.70
2019-03-19T05:54:51.751Z,92.60
2019-03-19T05:57:18.940Z,92.70
2019-03-19T05:59:46.185Z,92.70
2019-03-19T06:02:13.427Z,93.10
2019-03-19T06:04:40.701Z,93.10
2019-03-19T06:07:08.002Z,92.90
2019-03-19T06:09:35.236Z,92.80
2019-03-19T06:12:02.634Z,92.50
2019-03-19T06:14:30.011Z,91.80
2019-03-19T06:16:57.005Z,92.10
2019-03-19T06:19:24.169Z,92.10
2019-03-19T06:21:51.581Z,92.20
2019-03-19T06:24:19.905Z,92.10
2019-03-19T06:26:47.311Z,92.20
2019-03-19T06:29:14.549Z,92.00
2019-03-19T06:31:41.963Z,91.80
2019-03-19T06:34:09.341Z,92.30
2019-03-19T06:36:36.966Z,92.10
2019-03-19T06:39:06.692Z,91.80
2019-03-19T06:41:34.135Z,92.00
2019-03-19T06:44:01.370Z,91.60
2019-03-19T06:46:28.619Z,91.20
2019-03-19T06:48:56.026Z,91.40
2019-03-19T06:51:23.614Z,91.60
2019-03-19T06:53:50.909Z,91.50
2019-03-19T06:56:18.150Z,92.00
2019-03-19T06:58:47.290Z,91.80
2019-03-19T07:01:14.565Z,91.50
2019-03-19T07:03:41.827Z,91.30
2019-03-19T07:06:09.401Z,91.20
2019-03-19T07:08:36.831Z,91.20
2019-03-19T07:11:04.415Z,90.90
2019-03-19T07:13:31.796Z,90.50
2019-03-19T07:15:59.066Z,90.50
2019-03-19T07:18:26.292Z,90.50
2019-03-19T07:20:53.709Z,90.40
2019-03-19T07:23:21.268Z,90.50
2019-03-19T07:25:48.517Z,90.10
2019-03-19T07:28:22.024Z,90.10
2019-03-19T07:30:45.188Z,90.10
2019-03-19T07:33:12.418Z,90.70
2019-03-19T07:35:39.816Z,90.00
2019-03-19T07:38:07.057Z,90.30
2019-03-19T07:40:34.706Z,90.10
2019-03-19T07:43:01.955Z,89.70
2019-03-19T07:45:29.452Z,89.60
2019-03-19T07:47:56.763Z,89.10
2019-03-19T07:50:24.429Z,89.20
2019-03-19T07:52:52.078Z,88.80
2019-03-19T07:55:19.319Z,88.70
2019-03-19T07:57:46.825Z,87.70
2019-03-19T08:00:14.636Z,87.80
2019-03-19T08:02:41.928Z,87.30
2019-03-19T08:05:09.342Z,87.40
2019-03-19T08:07:36.803Z,87.70
2019-03-19T08:10:05.168Z,87.20
2019-03-19T08:12:33.648Z,86.30
2019-03-19T08:15:01.197Z,86.50
2019-03-19T08:17:28.573Z,85.70
2019-03-19T08:19:57.343Z,86.30
2019-03-19T08:22:24.584Z,85.70
2019-03-19T08:24:51.958Z,85.70
2019-03-19T08:27:19.284Z,85.40
2019-03-19T08:29:46.879Z,85.70
2019-03-19T08:32:14.065Z,84.60
2019-03-19T08:34:41.528Z,84.80
2019-03-19T08:37:09.324Z,84.80
2019-03-19T08:39:36.709Z,85.10
2019-03-19T08:42:04.184Z,84.80
2019-03-19T08:44:31.551Z,84.70
2019-03-19T08:46:58.817Z,84.70
2019-03-19T08:49:25.969Z,84.50
2019-03-19T08:51:53.336Z,83.30
2019-03-19T08:54:20.717Z,84.30
2019-03-19T08:56:48.115Z,84.60
2019-03-19T08:59:15.402Z,84.50
2019-03-19T09:01:42.830Z,83.60
2019-03-19T09:04:10.320Z,83.10
2019-03-19T09:06:39.778Z,82.80
2019-03-19T09:09:08.347Z,82.70
2019-03-19T09:11:37.773Z,82.00
2019-03-19T09:14:06.225Z,82.70
2019-03-19T09:16:33.634Z,82.70
2019-03-19T09:19:01.026Z,83.00
2019-03-19T09:21:28.459Z,82.20
2019-03-19T09:23:55.691Z,81.60
2019-03-19T09:26:24.048Z,80.80
2019-03-19T09:28:51.529Z,80.90
2019-03-19T09:31:18.780Z,80.70
2019-03-19T09:33:46.031Z,80.50
2019-03-19T09:36:13.399Z,80.70
2019-03-19T09:38:40.466Z,79.40
2019-03-19T09:41:07.865Z,79.60
2019-03-19T09:43:35.105Z,78.60
2019-03-19T09:46:02.514Z,79.10
2019-03-19T09:48:29.744Z,79.10
2019-03-19T09:50:57.029Z,78.90
2019-03-19T09:53:24.672Z,78.10
2019-03-19T09:55:51.951Z,78.10
2019-03-19T09:58:19.680Z,78.20
2019-03-19T10:00:47.115Z,78.20
2019-03-19T10:03:14.321Z,78.30
2019-03-19T10:05:41.891Z,77.20
2019-03-19T10:08:12.681Z,76.90
2019-03-19T10:10:40.007Z,77.30
2019-03-19T10:13:08.093Z,76.90
2019-03-19T10:15:35.462Z,76.60
2019-03-19T10:18:02.983Z,76.10
2019-03-19T10:20:30.447Z,76.70
2019-03-19T10:23:00.150Z,76.00
2019-03-19T10:25:27.743Z,76.60
2019-03-19T10:27:55.083Z,75.30
2019-03-19T10:30:22.643Z,74.90
2019-03-19T10:32:50.081Z,75.30
2019-03-19T10:35:18.597Z,74.80
2019-03-19T10:37:46.071Z,73.90
2019-03-19T10:40:13.693Z,73.50
2019-03-19T10:42:41.157Z,73.90
2019-03-19T10:45:09.638Z,74.40
2019-03-19T10:47:37.183Z,73.50
2019-03-19T10:50:07.274Z,73.50
2019-03-19T10:52:34.378Z,74.70
2019-03-19T10:55:01.762Z,70.70
2019-03-19T10:57:29.087Z,71.00
2019-03-19T11:00:04.623Z,70.40
2019-03-19T11:02:33.724Z,70.70
2019-03-19T11:05:01.987Z,72.00
2019-03-19T11:07:29.568Z,71.00
2019-03-19T11:09:58.086Z,69.30
2019-03-19T11:12:25.500Z,71.10
2019-03-19T11:14:52.753Z,72.10
2019-03-19T11:17:20.167Z,71.70
2019-03-19T11:19:47.312Z,71.20
2019-03-19T11:22:14.645Z,71.30
2019-03-19T11:24:41.946Z,70.60
2019-03-19T11:27:09.164Z,70.30
2019-03-19T11:29:36.651Z,68.80
2019-03-19T11:32:04.215Z,70.10
2019-03-19T11:34:31.532Z,67.70
2019-03-19T11:37:00.345Z,68.00
2019-03-19T11:39:27.604Z,66.20
2019-03-19T11:41:54.847Z,66.90
2019-03-19T11:44:22.837Z,66.30
2019-03-19T11:46:50.451Z,67.30
2019-03-19T11:49:18.961Z,66.60
2019-03-19T11:51:46.621Z,67.60
2019-03-19T11:54:13.881Z,65.40
2019-03-19T11:56:41.279Z,65.30
2019-03-19T11:59:09.788Z,64.80
2019-03-19T12:01:37.157Z,64.80
2019-03-19T12:04:04.879Z,64.70
2019-03-19T12:06:32.127Z,64.70
2019-03-19T12:09:01.041Z,64.90
2019-03-19T12:11:30.654Z,65.40
2019-03-19T12:13:57.975Z,66.90
2019-03-19T12:16:25.290Z,66.40
2019-03-19T12:18:53.081Z,66.20
2019-03-19T12:21:20.453Z,66.50
2019-03-19T12:23:48.058Z,66.20
2019-03-19T12:26:15.295Z,64.70
2019-03-19T12:28:42.603Z,65.40
2019-03-19T12:31:09.866Z,64.70
2019-03-19T12:33:41.152Z,64.50
2019-03-19T12:36:06.586Z,62.40
2019-03-19T12:38:34.089Z,61.80
2019-03-19T12:41:01.376Z,61.30
2019-03-19T12:43:31.482Z,60.50
2019-03-19T12:45:59.152Z,61.00
2019-03-19T12:48:26.529Z,61.50
2019-03-19T12:50:53.815Z,59.40
2019-03-19T12:53:21.348Z,60.60
2019-03-19T12:55:48.743Z,61.40
2019-03-19T12:58:16.114Z,62.20
2019-03-19T13:00:43.764Z,62.30
2019-03-19T13:03:11.025Z,60.90
2019-03-19T13:05:38.351Z,59.00
2019-03-19T13:08:05.611Z,58.50
2019-03-19T13:10:33.039Z,56.10
2019-03-19T13:13:00.450Z,56.60
2019-03-19T13:15:28.889Z,59.50
2019-03-19T13:17:57.362Z,60.00
2019-03-19T13:20:24.875Z,59.80
2019-03-19T13:22:53.552Z,61.70
2019-03-19T13:25:21.323Z,61.70
2019-03-19T13:27:48.677Z,62.10
2019-03-19T13:30:17.289Z,62.30
2019-03-19T13:32:44.619Z,62.70
2019-03-19T13:35:12.065Z,61.50
2019-03-19T13:37:39.414Z,63.40
2019-03-19T13:40:07.689Z,64.70
2019-03-19T13:42:35.187Z,64.00
2019-03-19T13:45:02.881Z,63.60
2019-03-19T13:47:30.368Z,64.10
2019-03-19T13:49:58.120Z,63.70
2019-03-19T13:52:25.486Z,64.40
2019-03-19T13:54:52.841Z,62.50
2019-03-19T13:57:20.119Z,63.20
2019-03-19T13:59:49.128Z,62.40
2019-03-19T14:02:16.648Z,62.50
2019-03-19T14:04:46.943Z,63.20
2019-03-19T14:07:14.332Z,64.10
2019-03-19T14:09:42.229Z,64.10
2019-03-19T14:12:09.609Z,64.20
2019-03-19T14:14:37.035Z,64.70
2019-03-19T14:17:06.547Z,64.80
2019-03-19T14:19:34.937Z,64.70
2019-03-19T14:22:02.403Z,64.40
2019-03-19T14:24:29.944Z,64.30
2019-03-19T14:26:57.254Z,62.40
2019-03-19T14:29:25.009Z,63.30
2019-03-19T14:31:52.503Z,63.20
2019-03-19T14:34:19.869Z,62.60
2019-03-19T14:36:47.364Z,62.20
2019-03-19T14:39:15.008Z,62.30
2019-03-19T14:41:42.841Z,61.00
2019-03-19T14:44:11.014Z,60.00
2019-03-19T14:46:38.512Z,58.90
2019-03-19T14:49:06.256Z,58.40
2019-03-19T14:51:33.586Z,58.10
2019-03-19T14:54:01.115Z,60.40
2019-03-19T14:56:29.777Z,60.60
2019-03-19T14:58:57.203Z,60.80
2019-03-19T15:01:24.801Z,62.20
2019-03-19T15:03:53.879Z,62.60
2019-03-19T15:06:22.048Z,63.20
2019-03-19T15:08:49.395Z,63.00
2019-03-19T15:11:16.626Z,63.10
2019-03-19T15:13:45.215Z,63.00
2019-03-19T15:16:12.916Z,62.70
2019-03-19T15:18:40.530Z,61.60
2019-03-19T15:21:09.003Z,61.30
2019-03-19T15:23:36.335Z,61.70
2019-03-19T15:26:03.672Z,62.20
2019-03-19T15:28:31.471Z,61.30
2019-03-19T15:30:59.741Z,61.30
2019-03-19T15:33:27.011Z,61.20
2019-03-19T15:35:54.496Z,60.70
2019-03-19T15:38:21.833Z,61.40
2019-03-19T15:40:49.180Z,61.20
2019-03-19T15:43:16.477Z,60.30
2019-03-19T15:45:43.933Z,61.20
2019-03-19T15:48:11.511Z,60.00
2019-03-19T15:50:40.444Z,58.70
2019-03-19T15:53:07.933Z,59.30
2019-03-19T15:55:35.350Z,60.40
2019-03-19T15:58:02.782Z,60.40
2019-03-19T16:00:30.402Z,60.80
2019-03-19T16:02:57.736Z,60.90
2019-03-19T16:05:25.093Z,60.90
2019-03-19T16:07:52.773Z,61.00
2019-03-19T16:10:19.985Z,60.60
2019-03-19T16:12:47.688Z,60.80
2019-03-19T16:15:15.219Z,60.80
2019-03-19T16:17:43.182Z,59.80
2019-03-19T16:20:12.178Z,59.60
2019-03-19T16:22:39.418Z,60.00
2019-03-19T16:25:06.759Z,60.60
2019-03-19T16:27:34.474Z,60.30
2019-03-19T16:30:02.107Z,60.00
2019-03-19T16:32:30.839Z,60.30
2019-03-19T16:34:58.209Z,60.30
2019-03-19T16:37:25.179Z,60.90
2019-03-19T16:39:52.415Z,61.00
2019-03-19T16:42:19.661Z,61.10
2019-03-19T16:44:46.950Z,61.10
2019-03-19T16:47:14.256Z,61.00
2019-03-19T16:49:41.936Z,60.70
2019-03-19T16:52:09.272Z,61.40
2019-03-19T16:54:36.843Z,61.30
2019-03-19T16:57:04.303Z,61.60
2019-03-19T16:59:31.710Z,61.50
2019-03-19T17:02:01.780Z,61.80
2019-03-19T17:04:28.509Z,61.50
2019-03-19T17:06:55.612Z,61.70
2019-03-19T17:09:24.108Z,61.80
2019-03-19T17:11:51.620Z,61.90
2019-03-19T17:14:18.710Z,62.10
2019-03-19T17:16:46.016Z,61.80
2019-03-19T17:19:13.516Z,62.10
2019-03-19T17:21:41.159Z,62.50
2019-03-19T17:24:08.441Z,62.70
2019-03-19T17:26:36.025Z,63.30
2019-03-19T17:29:03.237Z,63.00
2019-03-19T17:31:31.541Z,62.30
2019-03-19T17:33:59.053Z,62.90
2019-03-19T17:36:26.313Z,62.70
2019-03-19T17:38:53.645Z,62.80
2019-03-19T17:41:20.841Z,63.20
2019-03-19T17:43:47.944Z,63.70
2019-03-19T17:46:15.307Z,63.20
2019-03-19T17:48:42.628Z,63.20
2019-03-19T17:51:09.877Z,63.80
2019-03-19T17:53:37.012Z,64.00
2019-03-19T17:56:04.953Z,64.20
2019-03-19T17:58:32.193Z,65.90
2019-03-19T18:00:59.374Z,65.00
2019-03-19T18:03:26.986Z,64.50
2019-03-19T18:05:54.533Z,65.30
2019-03-19T18:08:21.985Z,64.10
2019-03-19T18:10:49.287Z,64.60
2019-03-19T18:13:16.652Z,65.70
2019-03-19T18:15:45.882Z,65.70
2019-03-19T18:18:14.039Z,66.10
2019-03-19T18:20:41.632Z,65.60
2019-03-19T18:23:09.485Z,65.70
2019-03-19T18:25:37.422Z,65.70
2019-03-19T18:28:04.961Z,66.50
2019-03-19T18:30:32.402Z,67.90
2019-03-19T18:32:59.960Z,68.20
2019-03-19T18:35:27.609Z,68.40
2019-03-19T18:37:55.652Z,68.90
2019-03-19T18:40:25.777Z,69.10
2019-03-19T18:42:53.389Z,69.20
2019-03-19T18:45:25.351Z,69.30
2019-03-19T18:47:54.634Z,69.40
2019-03-19T18:50:22.387Z,69.20
2019-03-19T18:52:50.202Z,69.20
2019-03-19T18:55:17.712Z,69.80
2019-03-19T18:57:45.549Z,69.80
2019-03-19T19:00:15.352Z,69.70
2019-03-19T19:02:49.781Z,70.70
2019-03-19T19:05:14.552Z,70.90
2019-03-19T19:07:42.638Z,71.10
2019-03-19T19:10:10.979Z,71.50
2019-03-19T19:12:38.696Z,72.20
2019-03-19T19:15:07.709Z,72.50
2019-03-19T19:17:36.359Z,72.70
2019-03-19T19:20:05.941Z,72.60
2019-03-19T19:22:33.466Z,72.80
2019-03-19T19:25:01.947Z,73.20
2019-03-19T19:27:29.501Z,73.80
2019-03-19T19:29:58.134Z,74.70
2019-03-19T19:32:26.881Z,74.80
2019-03-19T19:34:54.977Z,74.90
2019-03-19T19:37:23.299Z,75.10
2019-03-19T19:39:51.997Z,75.20
2019-03-19T19:42:19.450Z,75.90
2019-03-19T19:44:48.024Z,75.30
2019-03-19T19:47:16.536Z,75.50
2019-03-19T19:49:44.591Z,75.90
2019-03-19T19:52:12.093Z,76.00
2019-03-19T19:54:39.807Z,76.60
2019-03-19T19:57:07.558Z,76.50
2019-03-19T19:59:36.581Z,76.70
2019-03-19T20:02:05.143Z,76.50
2019-03-19T20:04:32.877Z,76.70
2019-03-19T20:07:00.653Z,76.90
2019-03-19T20:09:28.510Z,77.00
2019-03-19T20:11:56.031Z,76.40
2019-03-19T20:14:24.487Z,76.30
2019-03-19T20:16:53.167Z,76.40
2019-03-19T20:19:22.200Z,76.30
2019-03-19T20:21:49.833Z,76.60
2019-03-19T20:24:18.545Z,76.50
2019-03-19T20:26:47.623Z,76.90
2019-03-19T20:29:15.004Z,76.40
2019-03-19T20:31:44.078Z,76.10
2019-03-19T20:34:11.433Z,76.30
2019-03-19T20:36:38.854Z,76.30
2019-03-19T20:39:07.600Z,76.70
2019-03-19T20:41:35.327Z,76.10
2019-03-19T20:44:03.940Z,76.50
2019-03-19T20:46:32.843Z,77.00
2019-03-19T20:49:02.198Z,76.90
2019-03-19T20:51:29.833Z,76.90
2019-03-19T20:53:57.604Z,77.30
2019-03-19T20:56:25.819Z,77.70
2019-03-19T20:58:54.237Z,77.90
2019-03-19T21:01:23.281Z,77.80
2019-03-19T21:03:51.155Z,77.80
2019-03-19T21:06:19.641Z,77.60
2019-03-19T21:08:47.114Z,77.80
2019-03-19T21:11:15.654Z,78.00
2019-03-19T21:13:45.198Z,77.40
2019-03-19T21:16:13.308Z,77.50
2019-03-19T21:18:43.215Z,77.60
2019-03-19T21:21:12.195Z,77.70
2019-03-19T21:23:40.813Z,78.60
2019-03-19T21:26:08.154Z,78.30
2019-03-19T21:28:36.507Z,78.40
2019-03-19T21:31:06.178Z,78.70
2019-03-19T21:33:34.361Z,79.00
2019-03-19T21:36:03.893Z,79.10
2019-03-19T21:38:31.486Z,79.50
2019-03-19T21:40:58.977Z,79.70
2019-03-19T21:43:28.172Z,80.10
2019-03-19T21:45:55.715Z,80.40
2019-03-19T21:48:23.474Z,80.50
2019-03-19T21:50:52.033Z,79.90
2019-03-19T21:53:19.541Z,79.70
2019-03-19T21:55:47.140Z,79.70
2019-03-19T21:58:16.025Z,79.50
2019-03-19T22:00:44.063Z,80.00
2019-03-19T22:03:11.496Z,80.00
2019-03-19T22:05:39.184Z,79.70
2019-03-19T22:08:06.883Z,79.70
2019-03-19T22:10:35.710Z,79.60
2019-03-19T22:13:04.073Z,79.30
2019-03-19T22:15:31.715Z,79.70
2019-03-19T22:17:59.781Z,79.30
2019-03-19T22:20:27.152Z,79.60
2019-03-19T22:22:54.963Z,79.80
2019-03-19T22:25:22.449Z,79.30
2019-03-19T22:27:50.352Z,79.60
2019-03-19T22:30:17.836Z,79.60
2019-03-19T22:32:45.391Z,79.70
2019-03-19T22:35:13.101Z,79.50
2019-03-19T22:37:40.939Z,79.20
2019-03-19T22:40:09.587Z,79.50
2019-03-19T22:42:37.276Z,79.70
2019-03-19T22:45:06.037Z,79.60
2019-03-19T22:47:33.410Z,79.70
2019-03-19T22:50:00.717Z,79.60
2019-03-19T22:52:28.251Z,80.40
2019-03-19T22:54:55.645Z,80.30
2019-03-19T22:57:23.339Z,80.40
2019-03-19T22:59:50.757Z,80.30
2019-03-19T23:02:18.709Z,80.80
2019-03-19T23:04:46.697Z,80.60
2019-03-19T23:07:14.131Z,80.80
2019-03-19T23:09:41.793Z,81.10
2019-03-19T23:12:09.228Z,81.10
2019-03-19T23:14:36.597Z,81.30
2019-03-19T23:17:11.197Z,81.20
2019-03-19T23:19:38.691Z,80.90
2019-03-19T23:22:06.289Z,80.60
2019-03-19T23:24:33.745Z,80.40
2019-03-19T23:27:01.258Z,80.60
2019-03-19T23:29:28.708Z,81.10
2019-03-19T23:31:56.349Z,81.00
2019-03-19T23:34:23.839Z,81.20
2019-03-19T23:36:51.220Z,81.10
2019-03-19T23:39:18.762Z,81.10
2019-03-19T23:41:46.259Z,81.20
2019-03-19T23:44:14.837Z,81.10
2019-03-19T23:46:42.466Z,81.30
2019-03-19T23:49:09.799Z,81.50
2019-03-19T23:51:37.611Z,81.80
2019-03-19T23:54:05.107Z,81.60
2019-03-19T23:56:32.630Z,81.80
2019-03-19T23:58:59.985Z,81.80
